Time;durP1;ratioP1;P1;durP2;ratioP2;P2;SDS_P1;SDS_P2;PMS_P1;PMS_P2;Temp;Humidity;BMP_temperature;BMP_pressure;BME280_temperature;BME280_humidity;BME280_pressure;Samples;Min_cycle;Max_cycle;Signal;HPM_P1;HPM_P2
2021/05/20 00:01:53;;;;;;;31.75;21.77;;;19.10;47.40;;;;;;5032122;28;20066;-60
2021/05/20 00:04:22;;;;;;;31.95;22.75;;;19.10;47.40;;;;;;5032068;28;20169;-66
2021/05/20 00:06:47;;;;;;;32.63;23.80;;;19.10;47.40;;;;;;5031948;28;20091;-60
2021/05/20 00:09:13;;;;;;;30.45;21.90;;;19.10;47.40;;;;;;5032141;28;20457;-59
2021/05/20 00:11:39;;;;;;;29.38;20.88;;;19.10;47.40;;;;;;5031766;28;20132;-60
2021/05/20 00:14:05;;;;;;;31.80;21.52;;;19.10;47.40;;;;;;5032126;28;20128;-60
2021/05/20 00:16:31;;;;;;;31.20;21.25;;;19.10;47.40;;;;;;5031628;28;20175;-59
2021/05/20 00:18:56;;;;;;;30.05;19.67;;;19.10;47.50;;;;;;5032017;28;20076;-59
2021/05/20 00:21:22;;;;;;;27.23;20.73;;;19.10;47.50;;;;;;5031540;28;20048;-60
2021/05/20 00:23:48;;;;;;;26.83;20.63;;;19.10;47.50;;;;;;5032436;28;20038;-59
2021/05/20 00:26:13;;;;;;;27.95;19.85;;;19.10;47.50;;;;;;5031765;28;20046;-60
2021/05/20 00:28:40;;;;;;;29.15;20.80;;;19.00;47.50;;;;;;5031912;28;20045;-59
2021/05/20 00:31:06;;;;;;;27.63;19.20;;;19.10;47.50;;;;;;5031858;28;20522;-59
2021/05/20 00:33:31;;;;;;;27.75;20.73;;;19.10;47.50;;;;;;5031669;28;20052;-59
2021/05/20 00:35:57;;;;;;;28.75;19.13;;;19.10;47.60;;;;;;5031690;28;20140;-59
2021/05/20 00:38:23;;;;;;;28.02;19.10;;;19.10;47.60;;;;;;5035224;28;20092;-60
2021/05/20 00:40:48;;;;;;;25.88;19.17;;;19.10;47.60;;;;;;5035690;28;20179;-59
2021/05/20 00:43:14;;;;;;;27.35;18.27;;;19.10;47.60;;;;;;5035223;28;20137;-59
2021/05/20 00:45:40;;;;;;;25.23;18.58;;;19.00;47.60;;;;;;5035220;28;20075;-59
2021/05/20 00:48:06;;;;;;;25.70;18.98;;;19.10;47.60;;;;;;5035107;28;20047;-59
2021/05/20 00:50:32;;;;;;;26.25;18.80;;;19.00;47.60;;;;;;5035030;28;20046;-59
2021/05/20 00:52:58;;;;;;;23.55;17.17;;;19.10;47.70;;;;;;5035433;28;20492;-59
2021/05/20 00:55:24;;;;;;;25.88;18.38;;;19.10;47.70;;;;;;5035162;28;20131;-60
2021/05/20 00:57:52;;;;;;;25.67;18.02;;;19.10;47.70;;;;;;5034934;28;20215;-59
2021/05/20 01:00:20;;;;;;;25.80;19.10;;;19.10;47.70;;;;;;5035147;28;20102;-59
2021/05/20 01:02:45;;;;;;;25.35;18.08;;;19.10;47.70;;;;;;5034841;28;20054;-60
2021/05/20 01:05:13;;;;;;;27.95;19.15;;;19.10;47.80;;;;;;5034855;28;20180;-59
2021/05/20 01:07:40;;;;;;;23.25;16.95;;;19.10;47.80;;;;;;5034738;28;20484;-59
2021/05/20 01:10:07;;;;;;;25.27;17.80;;;19.00;47.70;;;;;;5034657;28;20512;-59
2021/05/20 01:12:33;;;;;;;22.77;17.38;;;19.00;47.80;;;;;;5034841;28;20139;-59
2021/05/20 01:14:59;;;;;;;25.15;17.27;;;19.00;47.80;;;;;;5034385;28;20080;-60
2021/05/20 01:17:26;;;;;;;23.92;17.65;;;19.10;47.80;;;;;;5034812;28;20115;-59
2021/05/20 01:19:52;;;;;;;24.00;16.75;;;19.00;47.80;;;;;;5034496;28;20585;-59
2021/05/20 01:22:18;;;;;;;23.90;16.58;;;19.00;47.80;;;;;;5034641;28;20139;-59
2021/05/20 01:24:45;;;;;;;24.55;17.80;;;19.00;47.80;;;;;;5034551;28;20052;-59
2021/05/20 01:27:13;;;;;;;22.85;16.50;;;19.00;47.80;;;;;;5034713;28;20053;-59
2021/05/20 01:29:41;;;;;;;20.67;15.52;;;19.00;47.80;;;;;;5034413;28;20045;-59
2021/05/20 01:32:07;;;;;;;21.90;16.10;;;19.00;47.80;;;;;;5034292;28;20044;-59
2021/05/20 01:34:34;;;;;;;19.50;15.60;;;19.00;47.80;;;;;;5034081;28;20384;-59
2021/05/20 01:37:01;;;;;;;20.90;14.80;;;19.00;47.90;;;;;;5034588;28;20170;-60
2021/05/20 01:39:26;;;;;;;22.05;16.63;;;19.00;47.90;;;;;;5034168;28;20484;-60
2021/05/20 01:41:52;;;;;;;21.70;15.75;;;19.00;47.90;;;;;;5034508;28;20052;-59
2021/05/20 01:44:20;;;;;;;21.65;15.25;;;19.00;47.90;;;;;;5034379;28;20458;-59
2021/05/20 01:46:46;;;;;;;20.60;15.18;;;19.00;48.00;;;;;;5033735;28;20056;-59
2021/05/20 01:49:12;;;;;;;18.77;14.93;;;19.00;48.00;;;;;;5033616;28;20044;-59
2021/05/20 01:51:40;;;;;;;21.67;15.88;;;19.00;48.00;;;;;;5034219;28;20041;-60
2021/05/20 01:54:06;;;;;;;19.73;13.57;;;19.00;48.00;;;;;;5034120;28;20041;-59
2021/05/20 01:56:36;;;;;;;20.00;15.13;;;19.00;48.00;;;;;;5033750;28;20071;-60
2021/05/20 01:59:05;;;;;;;20.50;15.15;;;19.00;48.00;;;;;;5033995;28;20127;-60
2021/05/20 02:01:31;;;;;;;21.60;14.30;;;19.00;48.00;;;;;;5033561;28;20045;-60
2021/05/20 02:03:57;;;;;;;21.02;13.35;;;19.00;48.00;;;;;;5034027;28;20100;-59
2021/05/20 02:06:23;;;;;;;22.02;15.13;;;19.00;48.70;;;;;;5034004;28;20061;-59
2021/05/20 02:08:49;;;;;;;20.20;14.40;;;19.00;48.00;;;;;;5033674;28;20131;-59
2021/05/20 02:11:14;;;;;;;21.38;15.00;;;19.00;48.10;;;;;;5033523;28;20071;-59
2021/05/20 02:13:40;;;;;;;18.75;13.57;;;19.00;48.10;;;;;;5033702;28;20048;-59
2021/05/20 02:16:07;;;;;;;19.08;13.77;;;19.00;48.20;;;;;;5032971;28;20055;-60
2021/05/20 02:18:33;;;;;;;16.70;13.07;;;19.00;48.20;;;;;;5033958;28;20073;-59
2021/05/20 02:20:58;;;;;;;20.73;13.85;;;19.00;48.20;;;;;;5034007;28;20056;-59
2021/05/20 02:23:24;;;;;;;19.45;13.35;;;19.00;48.20;;;;;;5033790;28;20041;-59
2021/05/20 02:25:50;;;;;;;17.40;13.77;;;19.00;48.20;;;;;;5033559;28;20044;-59
2021/05/20 02:28:15;;;;;;;20.00;13.38;;;19.00;48.20;;;;;;5033257;28;20103;-59
2021/05/20 02:30:41;;;;;;;19.00;13.27;;;19.00;48.20;;;;;;5033176;28;20087;-59
2021/05/20 02:33:07;;;;;;;18.05;13.85;;;19.00;48.20;;;;;;5033260;28;20044;-59
2021/05/20 02:35:33;;;;;;;17.38;13.05;;;19.00;48.20;;;;;;5033524;28;20412;-59
2021/05/20 02:37:58;;;;;;;17.27;12.82;;;19.00;48.10;;;;;;5032989;28;20511;-59
2021/05/20 02:40:24;;;;;;;16.33;12.20;;;19.00;48.10;;;;;;5033143;28;20045;-59
2021/05/20 02:42:50;;;;;;;17.35;12.02;;;19.00;48.10;;;;;;5032899;28;20500;-59
2021/05/20 02:45:21;;;;;;;18.38;12.93;;;19.00;48.20;;;;;;5032864;28;20127;-60
2021/05/20 02:47:48;;;;;;;18.08;13.13;;;19.00;48.20;;;;;;5033056;28;20053;-59
2021/05/20 02:50:15;;;;;;;18.83;13.43;;;19.00;48.30;;;;;;5033132;28;20101;-59
2021/05/20 02:52:45;;;;;;;16.33;12.13;;;19.00;48.30;;;;;;5032983;28;20040;-60
2021/05/20 02:55:15;;;;;;;15.32;11.50;;;19.00;48.30;;;;;;5033130;28;20072;-59
2021/05/20 02:57:49;;;;;;;17.65;12.82;;;19.00;48.30;;;;;;5032635;28;20080;-59
2021/05/20 03:00:18;;;;;;;15.20;11.43;;;19.00;48.30;;;;;;5032090;28;20064;-60
2021/05/20 03:02:44;;;;;;;16.10;11.57;;;19.00;48.30;;;;;;5032884;28;20049;-59
2021/05/20 03:05:10;;;;;;;16.52;11.65;;;19.00;48.30;;;;;;5032690;28;20696;-59
2021/05/20 03:07:36;;;;;;;15.05;11.27;;;19.00;48.30;;;;;;5032706;28;20055;-60
2021/05/20 03:10:03;;;;;;;14.45;11.30;;;19.00;48.30;;;;;;5032624;28;20042;-59
2021/05/20 03:12:29;;;;;;;15.30;11.02;;;19.00;48.20;;;;;;5032721;28;20072;-59
2021/05/20 03:14:55;;;;;;;18.30;11.45;;;19.00;48.20;;;;;;5032379;28;20076;-59
2021/05/20 03:17:22;;;;;;;15.55;10.45;;;19.00;48.20;;;;;;5032255;28;20083;-59
2021/05/20 03:19:47;;;;;;;13.98;10.43;;;19.00;48.20;;;;;;5031202;28;20061;-59
2021/05/20 03:22:13;;;;;;;12.60;9.98;;;19.00;48.10;;;;;;5032454;28;20115;-59
2021/05/20 03:24:39;;;;;;;15.40;11.20;;;19.00;48.20;;;;;;5032234;28;20041;-59
2021/05/20 03:27:05;;;;;;;14.65;10.18;;;19.00;48.20;;;;;;5032712;28;20057;-60
2021/05/20 03:29:30;;;;;;;13.90;10.18;;;19.00;48.30;;;;;;5032318;28;20055;-59
2021/05/20 03:31:56;;;;;;;14.75;10.32;;;18.90;48.20;;;;;;5032557;28;20079;-59
2021/05/20 03:34:22;;;;;;;12.27;8.65;;;18.90;48.20;;;;;;5032197;28;20485;-60
2021/05/20 03:36:48;;;;;;;14.63;9.73;;;18.90;48.20;;;;;;5032256;28;20066;-59
2021/05/20 03:39:13;;;;;;;12.25;9.70;;;19.00;48.30;;;;;;5032218;28;20049;-59
2021/05/20 03:41:39;;;;;;;13.30;10.35;;;18.90;48.20;;;;;;5031961;28;20042;-60
2021/05/20 03:44:05;;;;;;;15.23;9.98;;;18.90;48.30;;;;;;5032428;28;20047;-67
2021/05/20 03:46:30;;;;;;;13.23;9.52;;;18.90;48.20;;;;;;5032234;28;20056;-59
2021/05/20 03:48:56;;;;;;;13.18;8.48;;;18.90;48.20;;;;;;5032350;28;20200;-59
2021/05/20 03:51:22;;;;;;;14.05;9.55;;;18.90;48.20;;;;;;5032038;28;20411;-59
2021/05/20 03:53:48;;;;;;;13.88;9.27;;;18.90;48.20;;;;;;5032316;28;20041;-59
2021/05/20 03:56:14;;;;;;;13.57;9.13;;;18.90;48.10;;;;;;5031796;28;20052;-60
2021/05/20 03:58:40;;;;;;;11.65;9.02;;;18.90;48.10;;;;;;5032323;28;20059;-60
2021/05/20 04:01:06;;;;;;;13.05;9.77;;;18.90;48.10;;;;;;5031980;28;20050;-69
2021/05/20 04:03:32;;;;;;;13.20;9.20;;;18.90;48.10;;;;;;5031980;28;20449;-60
2021/05/20 04:06:03;;;;;;;12.85;9.93;;;18.90;48.10;;;;;;5031916;28;20048;-59
2021/05/20 04:08:29;;;;;;;11.30;8.57;;;18.90;48.10;;;;;;5031169;28;20052;-61
2021/05/20 04:10:55;;;;;;;11.75;8.52;;;18.90;48.10;;;;;;5032042;28;20051;-60
2021/05/20 04:13:37;;;;;;;12.50;8.63;;;18.90;48.10;;;;;;5035807;28;20089;-59
2021/05/20 04:16:04;;;;;;;12.23;8.77;;;18.90;48.20;;;;;;5035599;28;20534;-59
2021/05/20 04:18:30;;;;;;;11.02;7.78;;;18.90;48.20;;;;;;5035704;28;20104;-59
2021/05/20 04:20:56;;;;;;;10.82;8.25;;;18.90;48.10;;;;;;5035721;28;20516;-59
2021/05/20 04:23:23;;;;;;;11.65;8.05;;;18.90;48.20;;;;;;5035530;28;20049;-59
2021/05/20 04:25:50;;;;;;;11.65;9.05;;;18.90;48.10;;;;;;5035903;28;20051;-59
2021/05/20 04:28:16;;;;;;;11.77;8.60;;;18.90;48.10;;;;;;5035259;28;20557;-59
2021/05/20 04:30:42;;;;;;;11.20;7.93;;;18.90;48.40;;;;;;5035510;28;20055;-59
2021/05/20 04:33:08;;;;;;;9.57;7.10;;;18.90;48.20;;;;;;5035413;28;20077;-64
2021/05/20 04:35:35;;;;;;;10.38;7.18;;;18.90;48.10;;;;;;5035641;28;20067;-60
2021/05/20 04:38:02;;;;;;;10.93;7.90;;;18.90;48.10;;;;;;5035116;28;20451;-60
2021/05/20 04:40:28;;;;;;;11.82;7.80;;;18.90;48.70;;;;;;5035359;28;20052;-60
2021/05/20 04:42:54;;;;;;;10.48;7.70;;;18.90;48.00;;;;;;5035002;28;20564;-60
2021/05/20 04:45:20;;;;;;;9.90;6.88;;;18.90;48.10;;;;;;5035222;28;20079;-59
2021/05/20 04:47:47;;;;;;;11.13;7.40;;;18.90;48.10;;;;;;5035082;28;20492;-60
2021/05/20 04:50:14;;;;;;;10.45;7.70;;;18.90;48.10;;;;;;5035224;28;20045;-60
2021/05/20 04:52:41;;;;;;;9.45;6.72;;;18.90;48.10;;;;;;5035031;28;20053;-63
2021/05/20 04:55:08;;;;;;;9.52;7.18;;;18.90;48.10;;;;;;5035065;28;20040;-60
2021/05/20 04:57:34;;;;;;;10.70;7.03;;;18.90;48.10;;;;;;5034834;28;20424;-61
2021/05/20 05:00:00;;;;;;;10.65;7.47;;;18.80;48.10;;;;;;5034852;28;20122;-60
2021/05/20 05:02:26;;;;;;;10.27;7.53;;;18.80;48.10;;;;;;5034897;28;20041;-60
2021/05/20 05:04:52;;;;;;;9.48;7.15;;;18.80;48.10;;;;;;5034550;28;20077;-60
2021/05/20 05:07:18;;;;;;;10.45;6.60;;;18.80;48.10;;;;;;5035089;28;20106;-60
2021/05/20 05:09:43;;;;;;;11.15;7.85;;;18.80;48.70;;;;;;5034779;28;20044;-61
2021/05/20 05:12:09;;;;;;;10.40;7.15;;;18.80;48.10;;;;;;5035404;28;20144;-60
2021/05/20 05:14:35;;;;;;;10.43;6.78;;;18.80;48.10;;;;;;5034412;28;20498;-60
2021/05/20 05:17:01;;;;;;;10.02;7.28;;;18.80;48.10;;;;;;5034624;28;20164;-60
2021/05/20 05:19:27;;;;;;;9.00;6.18;;;18.80;48.10;;;;;;5034408;28;20089;-60
2021/05/20 05:21:52;;;;;;;9.20;7.00;;;18.80;48.10;;;;;;5034832;28;20100;-59
2021/05/20 05:24:18;;;;;;;15.02;6.90;;;18.80;48.10;;;;;;5033602;28;20051;-60
2021/05/20 05:26:44;;;;;;;10.43;6.97;;;18.80;48.20;;;;;;5034589;28;20064;-60
2021/05/20 05:29:09;;;;;;;9.50;6.22;;;18.80;47.70;;;;;;5034438;28;20048;-60
2021/05/20 05:31:36;;;;;;;9.65;6.60;;;18.80;47.90;;;;;;5034289;28;20040;-60
2021/05/20 05:34:03;;;;;;;7.88;6.07;;;18.80;48.10;;;;;;5034691;28;20045;-60
2021/05/20 05:36:28;;;;;;;14.27;6.85;;;18.80;48.10;;;;;;5034332;28;20057;-60
2021/05/20 05:38:54;;;;;;;8.73;6.65;;;18.80;48.20;;;;;;5034980;28;20424;-60
2021/05/20 05:41:20;;;;;;;8.95;5.93;;;18.80;48.20;;;;;;5034474;28;20105;-60
2021/05/20 05:43:46;;;;;;;8.05;5.68;;;18.80;48.20;;;;;;5034353;28;20399;-60
2021/05/20 05:46:11;;;;;;;8.80;6.85;;;18.80;48.30;;;;;;5034148;28;20184;-60
2021/05/20 05:48:37;;;;;;;7.60;5.55;;;18.80;48.30;;;;;;5034118;28;20044;-60
2021/05/20 05:51:06;;;;;;;9.80;6.47;;;18.80;48.30;;;;;;5033789;28;20435;-60
2021/05/20 05:53:32;;;;;;;7.63;5.78;;;18.80;48.30;;;;;;5034215;28;20102;-60
2021/05/20 05:55:58;;;;;;;8.60;5.75;;;18.80;48.30;;;;;;5033710;28;20049;-60
2021/05/20 05:58:24;;;;;;;9.88;5.90;;;18.80;48.40;;;;;;5034005;28;20084;-60
2021/05/20 06:00:49;;;;;;;8.52;5.47;;;18.80;48.40;;;;;;5033855;28;20063;-59
2021/05/20 06:03:15;;;;;;;8.30;5.78;;;18.80;48.40;;;;;;5033607;28;20042;-59
2021/05/20 06:05:41;;;;;;;10.93;5.90;;;18.80;48.40;;;;;;5033738;28;20100;-58
2021/05/20 06:08:07;;;;;;;8.35;5.80;;;18.80;48.50;;;;;;5033598;28;20055;-58
2021/05/20 06:10:34;;;;;;;10.27;7.10;;;18.80;48.50;;;;;;5033926;28;20041;-58
2021/05/20 06:13:00;;;;;;;8.15;5.57;;;18.80;48.50;;;;;;5033579;28;20068;-58
2021/05/20 06:15:26;;;;;;;8.35;5.85;;;18.80;48.60;;;;;;5033425;28;20061;-58
2021/05/20 06:17:51;;;;;;;8.23;5.88;;;18.80;48.60;;;;;;5031944;28;20075;-59
2021/05/20 06:20:17;;;;;;;7.97;5.40;;;18.80;48.60;;;;;;5033541;28;20370;-58
2021/05/20 06:22:43;;;;;;;9.48;6.05;;;18.80;48.70;;;;;;5033645;28;20134;-58
2021/05/20 06:25:10;;;;;;;9.18;6.13;;;18.80;48.70;;;;;;5033676;28;20083;-58
2021/05/20 06:27:35;;;;;;;7.70;5.63;;;18.80;48.70;;;;;;5033457;28;20046;-58
2021/05/20 06:30:01;;;;;;;6.80;5.18;;;18.80;48.70;;;;;;5033366;28;20098;-58
2021/05/20 06:32:28;;;;;;;8.00;5.82;;;18.80;48.80;;;;;;5033058;28;20451;-59
2021/05/20 06:34:54;;;;;;;8.70;6.38;;;18.80;48.80;;;;;;5033478;28;20069;-59
2021/05/20 06:37:19;;;;;;;8.15;5.35;;;18.80;48.80;;;;;;5032978;28;20068;-58
2021/05/20 06:39:45;;;;;;;8.32;6.25;;;18.80;48.80;;;;;;5033369;28;20227;-58
2021/05/20 06:42:14;;;;;;;9.27;4.30;;;18.80;48.80;;;;;;5033187;28;20073;-59
2021/05/20 06:44:40;;;;;;;6.97;4.50;;;18.80;47.20;;;;;;5032917;28;20059;-59
2021/05/20 06:47:06;;;;;;;9.15;3.97;;;18.80;46.50;;;;;;5032648;28;20109;-59
2021/05/20 06:49:31;;;;;;;12.95;3.17;;;18.80;46.50;;;;;;5032832;28;20044;-58
2021/05/20 06:51:57;;;;;;;15.77;9.90;;;18.70;42.00;;;;;;5033036;28;20095;-58
2021/05/20 06:54:23;;;;;;;16.75;10.15;;;18.70;40.90;;;;;;5032701;28;20048;-60
2021/05/20 06:57:00;;;;;;;23.45;16.50;;;18.60;38.30;;;;;;5032654;28;20074;-56
2021/05/20 07:02:10;;;;;;;21.67;14.07;;;18.60;36.40;;;;;;5033003;28;20052;-61
2021/05/20 07:04:35;;;;;;;43.03;26.17;;;18.60;35.60;;;;;;5028071;28;20088;-60
2021/05/20 07:07:02;;;;;;;29.58;19.38;;;18.60;35.40;;;;;;5022944;28;20583;-60
2021/05/20 07:09:33;;;;;;;37.40;14.38;;;18.60;34.30;;;;;;5012674;28;20479;-61
2021/05/20 07:12:00;;;;;;;17.13;9.77;;;18.60;34.10;;;;;;5012842;28;20053;-63
2021/05/20 07:14:26;;;;;;;15.88;9.20;;;18.60;34.40;;;;;;5012386;28;20045;-62
2021/05/20 07:16:52;;;;;;;11.35;7.13;;;18.60;34.40;;;;;;5012745;28;20070;-60
2021/05/20 07:19:19;;;;;;;11.05;5.57;;;18.70;34.60;;;;;;5012812;28;20040;-62
2021/05/20 07:21:45;;;;;;;8.98;4.65;;;18.80;35.50;;;;;;5012790;28;20058;-61
2021/05/20 07:24:11;;;;;;;6.82;2.95;;;18.80;35.00;;;;;;5012575;28;20466;-62
2021/05/20 07:26:36;;;;;;;4.03;1.80;;;18.80;34.30;;;;;;5011383;28;20048;-62
2021/05/20 07:29:04;;;;;;;3.58;1.95;;;18.80;34.10;;;;;;5012272;28;20040;-63
2021/05/20 07:31:30;;;;;;;4.88;1.50;;;18.70;34.10;;;;;;5012224;28;20045;-64
2021/05/20 07:33:56;;;;;;;1.40;0.70;;;18.80;34.30;;;;;;5012764;28;20045;-64
2021/05/20 07:36:22;;;;;;;2.78;0.50;;;18.80;33.90;;;;;;5012405;28;20042;-63
2021/05/20 07:38:48;;;;;;;3.22;0.60;;;18.80;33.60;;;;;;5012581;28;20135;-66
2021/05/20 07:41:15;;;;;;;1.25;0.43;;;18.80;33.40;;;;;;5012265;28;20070;-65
2021/05/20 07:43:40;;;;;;;4.03;0.40;;;18.90;33.60;;;;;;5012770;28;20052;-64
2021/05/20 07:46:06;;;;;;;4.75;0.40;;;18.90;33.80;;;;;;5012235;28;20039;-65
2021/05/20 07:48:33;;;;;;;1.13;0.40;;;18.90;33.70;;;;;;5016684;28;20040;-63
2021/05/20 07:51:00;;;;;;;1.30;0.32;;;18.90;34.10;;;;;;5016559;28;20074;-63
2021/05/20 07:53:27;;;;;;;2.20;0.30;;;19.00;33.50;;;;;;5016673;28;20135;-62
2021/05/20 07:55:53;;;;;;;0.73;0.30;;;18.90;33.30;;;;;;5016246;28;20112;-63
2021/05/20 07:58:18;;;;;;;1.83;0.52;;;18.90;33.70;;;;;;5016544;28;20524;-64
2021/05/20 08:00:44;;;;;;;2.40;0.50;;;19.00;35.00;;;;;;5016489;28;20060;-65
2021/05/20 08:10:56;;;;;;;1.95;0.40;;;19.00;34.60;;;;;;5016500;28;20043;-64
2021/05/20 08:13:22;;;;;;;1.92;0.45;;;19.00;34.60;;;;;;5016505;28;20050;-65
2021/05/20 08:15:48;;;;;;;1.55;0.60;;;19.00;34.10;;;;;;5016041;28;20372;-62
2021/05/20 08:18:14;;;;;;;1.13;0.32;;;19.00;34.70;;;;;;5015921;28;20167;-65
2021/05/20 08:20:40;;;;;;;1.58;0.30;;;19.00;33.90;;;;;;5016090;28;20053;-65
2021/05/20 08:23:06;;;;;;;3.75;0.50;;;19.00;33.60;;;;;;5014478;28;20091;-64
2021/05/20 08:25:32;;;;;;;2.70;0.43;;;19.00;33.80;;;;;;5015020;28;20054;-65
2021/05/20 08:27:58;;;;;;;0.30;0.30;;;19.00;33.90;;;;;;5016001;28;20071;-65
2021/05/20 08:30:23;;;;;;;2.63;0.50;;;19.10;33.10;;;;;;5016199;28;20111;-60
2021/05/20 08:32:49;;;;;;;2.10;0.60;;;19.10;34.20;;;;;;5015705;28;20481;-62
2021/05/20 08:35:16;;;;;;;1.83;0.60;;;19.10;34.00;;;;;;5015786;28;20137;-62
2021/05/20 08:37:42;;;;;;;3.60;0.40;;;19.10;34.10;;;;;;5015241;28;20555;-61
2021/05/20 08:40:09;;;;;;;1.05;0.50;;;19.10;33.30;;;;;;5015876;28;20517;-61
2021/05/20 08:42:36;;;;;;;1.45;0.50;;;19.10;33.50;;;;;;5015699;28;20050;-63
2021/05/20 08:45:11;;;;;;;4.47;0.60;;;19.10;33.80;;;;;;5015707;28;20045;-63
2021/05/20 08:47:38;;;;;;;2.03;0.60;;;19.10;34.70;;;;;;5015647;28;20048;-62
2021/05/20 08:50:05;;;;;;;0.98;0.52;;;19.20;33.60;;;;;;5015147;28;20469;-63
2021/05/20 08:52:32;;;;;;;2.65;0.50;;;19.20;34.40;;;;;;5015631;28;20078;-63
2021/05/20 08:54:58;;;;;;;2.08;0.40;;;19.20;35.00;;;;;;5015460;28;20444;-66
2021/05/20 08:57:24;;;;;;;1.55;0.30;;;19.20;33.30;;;;;;5015431;28;20147;-67
2021/05/20 08:59:51;;;;;;;0.80;0.45;;;19.20;33.90;;;;;;5015088;28;20053;-67
2021/05/20 09:02:31;;;;;;;1.00;0.38;;;19.20;33.10;;;;;;5015345;28;20188;-64
2021/05/20 09:05:03;;;;;;;0.28;0.28;;;19.20;33.70;;;;;;5014949;28;20439;-63
2021/05/20 09:07:35;;;;;;;0.95;0.40;;;19.30;34.90;;;;;;5015223;28;20061;-63
2021/05/20 09:10:19;;;;;;;2.30;0.60;;;19.20;34.40;;;;;;5015004;28;20049;-63
2021/05/20 09:12:48;;;;;;;1.38;0.40;;;19.20;34.40;;;;;;5015110;28;20084;-65
2021/05/20 09:15:20;;;;;;;2.97;0.70;;;19.20;34.60;;;;;;5013234;28;20483;-65
2021/05/20 09:17:46;;;;;;;1.35;0.47;;;19.20;35.00;;;;;;5015249;28;20068;-65
2021/05/20 09:20:12;;;;;;;0.52;0.47;;;19.20;34.70;;;;;;5014921;28;20048;-65
2021/05/20 09:22:38;;;;;;;1.40;0.30;;;19.20;35.00;;;;;;5014904;28;20094;-66
2021/05/20 09:25:07;;;;;;;1.25;0.40;;;19.20;35.40;;;;;;5014772;28;20127;-65
2021/05/20 09:27:38;;;;;;;0.40;0.30;;;19.20;35.60;;;;;;5014716;28;20490;-65
2021/05/20 09:30:18;;;;;;;3.03;0.45;;;19.20;35.40;;;;;;5014943;28;20098;-65
2021/05/20 09:32:59;;;;;;;0.45;0.32;;;19.20;35.50;;;;;;5014711;28;20042;-65
2021/05/20 09:35:30;;;;;;;0.52;0.30;;;19.20;36.20;;;;;;5014629;28;20148;-63
2021/05/20 09:38:02;;;;;;;1.02;0.40;;;19.20;36.10;;;;;;5014717;28;20121;-64
2021/05/20 09:40:44;;;;;;;1.02;0.40;;;19.20;35.60;;;;;;5014517;28;20041;-63
2021/05/20 09:43:29;;;;;;;0.50;0.40;;;19.20;35.40;;;;;;5015302;28;20491;-65
2021/05/20 09:45:57;;;;;;;2.72;0.55;;;19.20;35.70;;;;;;5014141;28;20127;-64
2021/05/20 09:48:27;;;;;;;2.17;0.50;;;19.20;36.10;;;;;;5031855;28;20068;-64
2021/05/20 09:50:55;;;;;;;0.98;0.30;;;19.20;35.60;;;;;;5032703;28;20389;-63
2021/05/20 09:53:23;;;;;;;2.63;1.88;;;19.10;35.60;;;;;;5032679;28;20053;-65
2021/05/20 09:56:01;;;;;;;2.05;0.45;;;19.10;34.30;;;;;;5033316;28;20048;-64
2021/05/20 09:58:33;;;;;;;4.82;0.52;;;19.10;35.10;;;;;;5033936;28;20420;-63
2021/05/20 10:01:01;;;;;;;3.80;0.43;;;19.10;35.70;;;;;;5033492;28;20067;-65
2021/05/20 10:03:28;;;;;;;0.85;0.38;;;19.20;36.40;;;;;;5034259;28;20107;-64
2021/05/20 10:05:57;;;;;;;2.50;0.40;;;19.20;36.40;;;;;;5034327;28;20092;-65
2021/05/20 10:08:26;;;;;;;3.08;0.60;;;19.20;36.10;;;;;;5033904;28;20060;-69
2021/05/20 10:10:56;;;;;;;2.33;0.60;;;19.20;36.80;;;;;;5032521;28;20131;-67
2021/05/20 10:13:26;;;;;;;1.88;0.40;;;19.20;37.10;;;;;;5034129;28;20049;-65
2021/05/20 10:15:53;;;;;;;3.55;0.63;;;19.20;36.70;;;;;;5032425;28;20159;-63
2021/05/20 10:18:21;;;;;;;2.70;0.50;;;19.20;36.30;;;;;;5033608;28;20072;-62
2021/05/20 10:20:52;;;;;;;4.07;0.60;;;19.20;36.90;;;;;;5034082;28;20052;-65
2021/05/20 10:23:20;;;;;;;1.33;0.40;;;19.20;36.80;;;;;;5033345;28;20107;-64
2021/05/20 10:25:47;;;;;;;2.42;0.45;;;19.20;36.50;;;;;;5033819;28;20044;-65
2021/05/20 10:28:16;;;;;;;3.58;0.50;;;19.20;36.80;;;;;;5033548;28;20053;-64
2021/05/20 10:30:46;;;;;;;0.68;0.30;;;19.30;37.00;;;;;;5032091;28;20076;-61
2021/05/20 10:33:14;;;;;;;2.83;0.43;;;19.30;35.70;;;;;;5034109;28;20036;-65
2021/05/20 10:35:47;;;;;;;7.78;0.40;;;19.30;36.50;;;;;;5033460;28;20039;-64
2021/05/20 10:38:36;;;;;;;0.68;0.30;;;19.30;36.60;;;;;;5032764;28;20077;-63
2021/05/20 10:41:23;;;;;;;0.45;0.40;;;19.30;36.90;;;;;;5033604;28;20058;-68
2021/05/20 10:44:08;;;;;;;3.80;0.45;;;19.30;37.00;;;;;;5033594;28;20055;-60
2021/05/20 10:47:02;;;;;;;1.05;0.50;;;19.30;36.70;;;;;;5033550;28;20075;-64
2021/05/20 10:49:46;;;;;;;1.40;0.50;;;19.30;37.00;;;;;;5033244;28;20051;-60
2021/05/20 10:52:33;;;;;;;1.67;0.30;;;19.30;37.10;;;;;;5032803;28;20046;-61
2021/05/20 10:55:01;;;;;;;0.47;0.30;;;19.30;37.00;;;;;;5033625;28;20041;-62
2021/05/20 10:58:00;;;;;;;7.80;0.65;;;19.30;37.20;;;;;;5032483;28;20119;-58
2021/05/20 11:00:28;;;;;;;5.90;1.00;;;19.40;37.80;;;;;;5032649;28;20069;-57
2021/05/20 11:02:54;;;;;;;4.43;1.15;;;19.30;37.70;;;;;;5032998;28;20042;-57
2021/05/20 11:05:42;;;;;;;3.20;0.45;;;19.40;37.50;;;;;;5033230;28;20184;-57
2021/05/20 11:08:26;;;;;;;10.48;1.05;;;19.40;36.10;;;;;;5032726;28;20535;-60
2021/05/20 11:10:52;;;;;;;10.68;1.27;;;19.40;37.30;;;;;;5033331;28;20040;-62
2021/05/20 11:13:38;;;;;;;12.43;1.67;;;19.40;37.90;;;;;;5032079;28;20049;-60
2021/05/20 11:16:16;;;;;;;16.70;8.75;;;19.40;38.30;;;;;;5032811;28;20057;-60
2021/05/20 11:18:44;;;;;;;20.55;14.45;;;19.40;38.30;;;;;;5032847;28;20595;-65
2021/05/20 11:21:10;;;;;;;21.45;10.95;;;19.30;38.40;;;;;;5031707;28;20047;-61
2021/05/20 11:23:37;;;;;;;25.27;15.27;;;19.30;38.80;;;;;;5033142;28;20388;-66
2021/05/20 11:26:14;;;;;;;21.10;12.65;;;19.40;39.00;;;;;;5033086;28;20048;-63
2021/05/20 11:28:48;;;;;;;20.20;11.90;;;19.40;39.10;;;;;;5032334;28;20058;-62
2021/05/20 11:31:17;;;;;;;21.10;15.15;;;19.40;39.30;;;;;;5032666;28;20134;-62
2021/05/20 11:33:52;;;;;;;23.10;13.70;;;19.30;38.80;;;;;;5032896;28;20048;-62
2021/05/20 11:36:18;;;;;;;24.95;15.30;;;19.40;39.40;;;;;;5032455;28;20048;-60
2021/05/20 11:38:55;;;;;;;26.90;18.58;;;19.30;39.10;;;;;;5032425;28;20427;-60
2021/05/20 11:41:21;;;;;;;23.83;15.23;;;19.30;39.30;;;;;;5032665;28;20083;-60
2021/05/20 11:43:59;;;;;;;23.10;14.90;;;19.30;39.40;;;;;;5032341;28;20068;-60
2021/05/20 11:46:25;;;;;;;25.25;14.60;;;19.30;39.50;;;;;;5032442;28;20043;-59
2021/05/20 11:49:01;;;;;;;23.35;15.02;;;19.20;39.60;;;;;;5032597;28;20064;-63
2021/05/20 11:51:41;;;;;;;28.10;14.02;;;19.20;39.60;;;;;;5031452;28;20045;-61
2021/05/20 11:54:10;;;;;;;21.17;14.60;;;19.20;39.80;;;;;;5032529;28;20400;-62
2021/05/20 11:56:55;;;;;;;19.63;12.18;;;19.30;39.90;;;;;;5032257;28;20122;-61
2021/05/20 11:59:38;;;;;;;20.25;13.65;;;19.30;39.50;;;;;;5032260;28;20044;-61
2021/05/20 12:02:14;;;;;;;29.40;19.45;;;19.20;39.80;;;;;;5031778;28;20127;-61
2021/05/20 12:04:40;;;;;;;45.95;33.67;;;19.30;39.60;;;;;;5012681;28;20600;-61
2021/05/20 12:07:07;;;;;;;65.13;47.53;;;19.20;39.70;;;;;;5011953;28;20045;-62
2021/05/20 12:09:33;;;;;;;78.53;59.88;;;19.20;39.90;;;;;;5016526;28;20106;-63
2021/05/20 12:12:10;;;;;;;60.72;43.15;;;19.30;40.10;;;;;;5011893;28;20073;-64
2021/05/20 12:14:36;;;;;;;83.55;60.55;;;19.30;40.30;;;;;;5011737;28;20083;-63
2021/05/20 12:17:11;;;;;;;92.68;65.07;;;19.30;40.10;;;;;;5012408;28;20108;-63
2021/05/20 12:19:45;;;;;;;87.07;61.67;;;19.30;40.20;;;;;;5012947;28;20048;-62
2021/05/20 12:22:25;;;;;;;74.63;54.60;;;19.30;40.20;;;;;;5011854;28;20418;-63
2021/05/20 12:24:55;;;;;;;68.40;51.78;;;19.30;40.60;;;;;;5012482;28;20077;-63
2021/05/20 12:27:35;;;;;;;73.07;52.40;;;19.30;39.90;;;;;;5012098;28;20054;-63
2021/05/20 12:30:06;;;;;;;66.45;46.17;;;19.30;40.10;;;;;;5011873;28;20090;-61
2021/05/20 12:32:32;;;;;;;61.00;43.88;;;19.40;39.80;;;;;;5013221;28;20071;-64
2021/05/20 12:35:19;;;;;;;60.53;42.95;;;19.30;40.00;;;;;;5015865;28;20054;-63
2021/05/20 12:38:07;;;;;;;52.53;36.90;;;19.40;40.30;;;;;;5015634;28;20537;-60
2021/05/20 12:40:40;;;;;;;52.38;37.08;;;19.40;39.90;;;;;;5016167;28;20049;-62
2021/05/20 12:43:22;;;;;;;49.20;37.08;;;19.30;40.00;;;;;;5015169;28;20577;-58
2021/05/20 12:45:58;;;;;;;39.13;28.20;;;19.40;40.10;;;;;;5015719;28;20043;-61
2021/05/20 12:48:25;;;;;;;38.35;26.83;;;19.40;39.30;;;;;;5015987;28;20045;-66
2021/05/20 12:50:53;;;;;;;30.77;23.92;;;19.40;38.90;;;;;;5015443;28;20074;-63
2021/05/20 12:53:36;;;;;;;33.47;24.88;;;19.40;39.00;;;;;;5015690;28;20040;-63